sensor_id;sensor_type;location;lat;lon;timestamp;temperature;humidity
51021;DHT22;38907;45.562;8.856;2023-01-31T00:03:19;2.80;99.90
51021;DHT22;38907;45.562;8.856;2023-01-31T00:08:21;2.50;99.90
51021;DHT22;38907;45.562;8.856;2023-01-31T00:13:24;2.30;99.90
51021;DHT22;38907;45.562;8.856;2023-01-31T00:18:28;2.10;99.90
51021;DHT22;38907;45.562;8.856;2023-01-31T00:23:30;2.30;99.90
51021;DHT22;38907;45.562;8.856;2023-01-31T00:28:33;2.50;99.90
51021;DHT22;38907;45.562;8.856;2023-01-31T00:33:36;2.70;99.90
51021;DHT22;38907;45.562;8.856;2023-01-31T00:38:39;2.90;99.90
51021;DHT22;38907;45.562;8.856;2023-01-31T00:43:43;3.00;99.90
51021;DHT22;38907;45.562;8.856;2023-01-31T00:48:44;3.20;99.90
51021;DHT22;38907;45.562;8.856;2023-01-31T00:53:47;3.30;99.90
51021;DHT22;38907;45.562;8.856;2023-01-31T00:58:51;3.40;99.90
51021;DHT22;38907;45.562;8.856;2023-01-31T01:03:53;3.30;99.90
51021;DHT22;38907;45.562;8.856;2023-01-31T01:08:56;3.20;99.90
51021;DHT22;38907;45.562;8.856;2023-01-31T01:14:00;3.40;99.90
51021;DHT22;38907;45.562;8.856;2023-01-31T01:19:03;3.30;99.90
51021;DHT22;38907;45.562;8.856;2023-01-31T01:24:07;3.40;99.90
51021;DHT22;38907;45.562;8.856;2023-01-31T01:29:11;3.20;99.90
51021;DHT22;38907;45.562;8.856;2023-01-31T01:34:15;3.20;99.90
51021;DHT22;38907;45.562;8.856;2023-01-31T01:39:17;3.00;99.90
51021;DHT22;38907;45.562;8.856;2023-01-31T01:44:43;3.10;99.90
51021;DHT22;38907;45.562;8.856;2023-01-31T01:49:50;3.20;99.90
51021;DHT22;38907;45.562;8.856;2023-01-31T01:54:56;3.20;99.90
51021;DHT22;38907;45.562;8.856;2023-01-31T02:00:07;3.20;99.90
51021;DHT22;38907;45.562;8.856;2023-01-31T02:05:12;3.20;99.90
51021;DHT22;38907;45.562;8.856;2023-01-31T02:10:20;3.10;99.90
51021;DHT22;38907;45.562;8.856;2023-01-31T02:15:25;2.90;99.90
51021;DHT22;38907;45.562;8.856;2023-01-31T02:20:50;3.10;99.90
51021;DHT22;38907;45.562;8.856;2023-01-31T02:26:23;3.00;99.90
51021;DHT22;38907;45.562;8.856;2023-01-31T02:31:53;2.90;99.90
51021;DHT22;38907;45.562;8.856;2023-01-31T02:37:09;2.90;99.90
51021;DHT22;38907;45.562;8.856;2023-01-31T02:42:17;3.00;99.90
51021;DHT22;38907;45.562;8.856;2023-01-31T02:47:34;3.00;99.90
51021;DHT22;38907;45.562;8.856;2023-01-31T02:52:44;3.00;99.90
51021;DHT22;38907;45.562;8.856;2023-01-31T02:57:49;3.10;99.90
51021;DHT22;38907;45.562;8.856;2023-01-31T03:02:52;3.20;99.90
51021;DHT22;38907;45.562;8.856;2023-01-31T03:08:02;3.00;99.90
51021;DHT22;38907;45.562;8.856;2023-01-31T03:13:17;3.00;99.90
51021;DHT22;38907;45.562;8.856;2023-01-31T03:18:23;2.80;99.90
51021;DHT22;38907;45.562;8.856;2023-01-31T03:23:30;2.90;99.90
51021;DHT22;38907;45.562;8.856;2023-01-31T03:28:35;2.90;99.90
51021;DHT22;38907;45.562;8.856;2023-01-31T03:33:44;2.90;99.90
51021;DHT22;38907;45.562;8.856;2023-01-31T03:38:53;3.00;99.90
51021;DHT22;38907;45.562;8.856;2023-01-31T03:44:02;3.00;99.90
51021;DHT22;38907;45.562;8.856;2023-01-31T03:49:09;3.00;99.90
51021;DHT22;38907;45.562;8.856;2023-01-31T03:54:18;3.00;99.90
51021;DHT22;38907;45.562;8.856;2023-01-31T03:59:25;3.00;99.90
51021;DHT22;38907;45.562;8.856;2023-01-31T04:04:31;3.00;99.90
51021;DHT22;38907;45.562;8.856;2023-01-31T04:09:38;2.90;99.90
51021;DHT22;38907;45.562;8.856;2023-01-31T04:14:40;2.80;99.90
51021;DHT22;38907;45.562;8.856;2023-01-31T04:19:42;2.70;99.90
51021;DHT22;38907;45.562;8.856;2023-01-31T04:24:46;2.70;99.90
51021;DHT22;38907;45.562;8.856;2023-01-31T04:29:48;2.60;99.90
51021;DHT22;38907;45.562;8.856;2023-01-31T04:34:51;2.70;99.90
51021;DHT22;38907;45.562;8.856;2023-01-31T04:39:54;2.80;99.90
51021;DHT22;38907;45.562;8.856;2023-01-31T04:44:56;2.60;99.90
51021;DHT22;38907;45.562;8.856;2023-01-31T04:49:57;2.40;99.90
51021;DHT22;38907;45.562;8.856;2023-01-31T04:55:02;2.20;99.90
51021;DHT22;38907;45.562;8.856;2023-01-31T05:00:05;2.30;99.90
51021;DHT22;38907;45.562;8.856;2023-01-31T05:05:08;2.30;99.90
51021;DHT22;38907;45.562;8.856;2023-01-31T05:10:13;2.20;99.90
51021;DHT22;38907;45.562;8.856;2023-01-31T05:15:15;2.20;99.90
51021;DHT22;38907;45.562;8.856;2023-01-31T05:20:17;2.20;99.90
51021;DHT22;38907;45.562;8.856;2023-01-31T05:25:20;2.20;99.90
51021;DHT22;38907;45.562;8.856;2023-01-31T05:30:22;2.30;99.90
51021;DHT22;38907;45.562;8.856;2023-01-31T05:35:24;2.30;99.90
51021;DHT22;38907;45.562;8.856;2023-01-31T05:40:28;2.30;99.90
51021;DHT22;38907;45.562;8.856;2023-01-31T05:45:30;2.20;99.90
51021;DHT22;38907;45.562;8.856;2023-01-31T05:50:32;2.20;99.90
51021;DHT22;38907;45.562;8.856;2023-01-31T05:55:35;2.10;99.90
51021;DHT22;38907;45.562;8.856;2023-01-31T06:00:37;2.10;99.90
51021;DHT22;38907;45.562;8.856;2023-01-31T06:05:38;2.00;99.90
51021;DHT22;38907;45.562;8.856;2023-01-31T06:10:42;1.90;99.90
51021;DHT22;38907;45.562;8.856;2023-01-31T06:15:44;2.00;99.90
51021;DHT22;38907;45.562;8.856;2023-01-31T06:20:46;2.10;99.90
51021;DHT22;38907;45.562;8.856;2023-01-31T06:25:49;2.00;99.90
51021;DHT22;38907;45.562;8.856;2023-01-31T06:30:51;2.20;99.90
51021;DHT22;38907;45.562;8.856;2023-01-31T06:35:57;2.10;99.90
51021;DHT22;38907;45.562;8.856;2023-01-31T06:41:01;2.10;99.90
51021;DHT22;38907;45.562;8.856;2023-01-31T06:46:03;2.10;99.90
51021;DHT22;38907;45.562;8.856;2023-01-31T06:51:05;2.00;99.90
51021;DHT22;38907;45.562;8.856;2023-01-31T06:56:08;2.00;99.90
51021;DHT22;38907;45.562;8.856;2023-01-31T07:01:12;2.10;99.90
51021;DHT22;38907;45.562;8.856;2023-01-31T07:06:14;2.10;99.90
51021;DHT22;38907;45.562;8.856;2023-01-31T07:11:19;2.20;99.90
51021;DHT22;38907;45.562;8.856;2023-01-31T07:16:20;2.20;99.90
51021;DHT22;38907;45.562;8.856;2023-01-31T07:21:24;2.40;99.90
51021;DHT22;38907;45.562;8.856;2023-01-31T07:26:28;2.50;99.90
51021;DHT22;38907;45.562;8.856;2023-01-31T07:31:30;2.60;99.90
51021;DHT22;38907;45.562;8.856;2023-01-31T07:36:32;2.50;99.90
51021;DHT22;38907;45.562;8.856;2023-01-31T07:41:35;2.50;99.90
51021;DHT22;38907;45.562;8.856;2023-01-31T07:46:37;2.40;99.90
51021;DHT22;38907;45.562;8.856;2023-01-31T07:51:40;2.40;99.90
51021;DHT22;38907;45.562;8.856;2023-01-31T07:56:44;2.50;99.90
51021;DHT22;38907;45.562;8.856;2023-01-31T08:01:47;2.70;99.90
51021;DHT22;38907;45.562;8.856;2023-01-31T08:07:06;2.80;99.90
51021;DHT22;38907;45.562;8.856;2023-01-31T08:12:11;3.00;99.90
51021;DHT22;38907;45.562;8.856;2023-01-31T08:17:13;3.00;99.90
51021;DHT22;38907;45.562;8.856;2023-01-31T08:22:15;3.20;99.90
51021;DHT22;38907;45.562;8.856;2023-01-31T08:27:18;3.30;99.90
51021;DHT22;38907;45.562;8.856;2023-01-31T08:32:20;3.40;99.90
51021;DHT22;38907;45.562;8.856;2023-01-31T08:37:22;3.50;99.90
51021;DHT22;38907;45.562;8.856;2023-01-31T08:42:25;3.60;99.90
51021;DHT22;38907;45.562;8.856;2023-01-31T08:47:27;3.90;99.90
51021;DHT22;38907;45.562;8.856;2023-01-31T08:52:29;4.00;99.90
51021;DHT22;38907;45.562;8.856;2023-01-31T08:57:36;4.10;99.90
51021;DHT22;38907;45.562;8.856;2023-01-31T09:02:38;4.30;99.90
51021;DHT22;38907;45.562;8.856;2023-01-31T09:07:39;4.30;99.90
51021;DHT22;38907;45.562;8.856;2023-01-31T09:12:43;4.50;99.90
51021;DHT22;38907;45.562;8.856;2023-01-31T09:17:44;4.60;99.90
51021;DHT22;38907;45.562;8.856;2023-01-31T09:22:46;4.80;99.90
51021;DHT22;38907;45.562;8.856;2023-01-31T09:27:51;4.90;99.90
51021;DHT22;38907;45.562;8.856;2023-01-31T09:32:53;5.10;99.90
51021;DHT22;38907;45.562;8.856;2023-01-31T09:37:55;5.20;99.90
51021;DHT22;38907;45.562;8.856;2023-01-31T09:43:00;5.30;99.90
51021;DHT22;38907;45.562;8.856;2023-01-31T09:48:06;5.30;99.90
51021;DHT22;38907;45.562;8.856;2023-01-31T09:53:08;5.40;99.90
51021;DHT22;38907;45.562;8.856;2023-01-31T09:58:18;5.60;99.90
51021;DHT22;38907;45.562;8.856;2023-01-31T10:03:40;5.60;99.90
51021;DHT22;38907;45.562;8.856;2023-01-31T10:08:52;5.70;99.90
51021;DHT22;38907;45.562;8.856;2023-01-31T10:14:03;5.80;99.90
51021;DHT22;38907;45.562;8.856;2023-01-31T10:19:08;5.80;99.90
51021;DHT22;38907;45.562;8.856;2023-01-31T10:24:15;5.90;99.90
51021;DHT22;38907;45.562;8.856;2023-01-31T10:29:25;5.80;99.90
51021;DHT22;38907;45.562;8.856;2023-01-31T10:34:31;6.00;99.90
51021;DHT22;38907;45.562;8.856;2023-01-31T10:39:39;6.00;99.90
51021;DHT22;38907;45.562;8.856;2023-01-31T10:44:50;6.10;99.90
51021;DHT22;38907;45.562;8.856;2023-01-31T10:49:53;6.10;99.90
51021;DHT22;38907;45.562;8.856;2023-01-31T10:55:04;6.10;99.90
51021;DHT22;38907;45.562;8.856;2023-01-31T11:00:17;6.20;99.90
51021;DHT22;38907;45.562;8.856;2023-01-31T11:05:21;6.30;99.90
51021;DHT22;38907;45.562;8.856;2023-01-31T11:10:25;6.30;99.90
51021;DHT22;38907;45.562;8.856;2023-01-31T11:15:34;6.30;99.90
51021;DHT22;38907;45.562;8.856;2023-01-31T11:20:44;6.40;99.90
51021;DHT22;38907;45.562;8.856;2023-01-31T11:25:48;6.60;99.90
51021;DHT22;38907;45.562;8.856;2023-01-31T11:30:53;6.60;99.90
51021;DHT22;38907;45.562;8.856;2023-01-31T11:35:55;6.60;99.90
51021;DHT22;38907;45.562;8.856;2023-01-31T11:40:58;6.70;99.90
51021;DHT22;38907;45.562;8.856;2023-01-31T11:46:02;6.80;99.90
51021;DHT22;38907;45.562;8.856;2023-01-31T11:51:05;6.80;99.90
51021;DHT22;38907;45.562;8.856;2023-01-31T11:56:13;6.90;99.90
51021;DHT22;38907;45.562;8.856;2023-01-31T12:01:19;7.00;99.90
51021;DHT22;38907;45.562;8.856;2023-01-31T12:06:26;7.10;99.90
51021;DHT22;38907;45.562;8.856;2023-01-31T12:11:30;7.10;99.90
51021;DHT22;38907;45.562;8.856;2023-01-31T12:16:34;7.20;99.90
51021;DHT22;38907;45.562;8.856;2023-01-31T12:21:44;7.30;99.90
51021;DHT22;38907;45.562;8.856;2023-01-31T12:26:53;7.50;99.90
51021;DHT22;38907;45.562;8.856;2023-01-31T12:32:20;7.50;99.90
51021;DHT22;38907;45.562;8.856;2023-01-31T12:37:35;7.70;99.90
51021;DHT22;38907;45.562;8.856;2023-01-31T12:42:53;7.90;99.90
51021;DHT22;38907;45.562;8.856;2023-01-31T12:48:28;8.00;99.90
51021;DHT22;38907;45.562;8.856;2023-01-31T12:53:42;8.00;99.90
51021;DHT22;38907;45.562;8.856;2023-01-31T12:58:53;8.00;99.90
51021;DHT22;38907;45.562;8.856;2023-01-31T13:09:34;8.20;99.90
51021;DHT22;38907;45.562;8.856;2023-01-31T13:14:41;8.20;99.90
51021;DHT22;38907;45.562;8.856;2023-01-31T13:19:50;8.30;99.90
51021;DHT22;38907;45.562;8.856;2023-01-31T13:25:04;8.50;99.90
51021;DHT22;38907;45.562;8.856;2023-01-31T13:30:16;8.50;99.90
51021;DHT22;38907;45.562;8.856;2023-01-31T13:35:25;8.60;99.90
51021;DHT22;38907;45.562;8.856;2023-01-31T13:40:31;8.60;99.90
51021;DHT22;38907;45.562;8.856;2023-01-31T13:45:39;8.70;99.90
51021;DHT22;38907;45.562;8.856;2023-01-31T13:50:47;8.70;99.90
51021;DHT22;38907;45.562;8.856;2023-01-31T13:55:51;8.80;99.90
51021;DHT22;38907;45.562;8.856;2023-01-31T14:00:57;8.90;99.90
51021;DHT22;38907;45.562;8.856;2023-01-31T14:06:01;8.90;99.90
51021;DHT22;38907;45.562;8.856;2023-01-31T14:11:33;9.10;99.90
51021;DHT22;38907;45.562;8.856;2023-01-31T14:16:38;9.00;99.90
51021;DHT22;38907;45.562;8.856;2023-01-31T14:21:50;9.00;99.90
51021;DHT22;38907;45.562;8.856;2023-01-31T14:26:53;9.00;99.90
51021;DHT22;38907;45.562;8.856;2023-01-31T14:31:56;9.00;99.90
51021;DHT22;38907;45.562;8.856;2023-01-31T14:37:08;9.00;99.90
51021;DHT22;38907;45.562;8.856;2023-01-31T14:48:13;8.90;99.90
51021;DHT22;38907;45.562;8.856;2023-01-31T14:53:34;8.90;99.90
51021;DHT22;38907;45.562;8.856;2023-01-31T14:58:41;8.90;99.90
51021;DHT22;38907;45.562;8.856;2023-01-31T15:03:49;8.80;99.90
51021;DHT22;38907;45.562;8.856;2023-01-31T15:09:17;8.90;99.90
51021;DHT22;38907;45.562;8.856;2023-01-31T15:14:31;8.90;99.90
51021;DHT22;38907;45.562;8.856;2023-01-31T15:19:44;8.90;99.90
51021;DHT22;38907;45.562;8.856;2023-01-31T15:24:51;8.80;99.90
51021;DHT22;38907;45.562;8.856;2023-01-31T15:30:02;8.80;99.90
51021;DHT22;38907;45.562;8.856;2023-01-31T15:35:13;8.70;99.90
51021;DHT22;38907;45.562;8.856;2023-01-31T15:40:20;8.60;99.90
51021;DHT22;38907;45.562;8.856;2023-01-31T15:45:26;8.50;99.90
51021;DHT22;38907;45.562;8.856;2023-01-31T15:50:31;8.50;99.90
51021;DHT22;38907;45.562;8.856;2023-01-31T15:55:35;8.40;99.90
51021;DHT22;38907;45.562;8.856;2023-01-31T16:00:37;8.30;99.90
51021;DHT22;38907;45.562;8.856;2023-01-31T16:05:40;8.20;99.90
51021;DHT22;38907;45.562;8.856;2023-01-31T16:10:45;8.10;99.90
51021;DHT22;38907;45.562;8.856;2023-01-31T16:15:48;8.00;99.90
51021;DHT22;38907;45.562;8.856;2023-01-31T16:20:52;7.90;99.90
51021;DHT22;38907;45.562;8.856;2023-01-31T16:25:59;7.80;99.90
51021;DHT22;38907;45.562;8.856;2023-01-31T16:31:04;7.70;99.90
51021;DHT22;38907;45.562;8.856;2023-01-31T16:36:09;7.70;99.90
51021;DHT22;38907;45.562;8.856;2023-01-31T16:41:13;7.60;99.90
51021;DHT22;38907;45.562;8.856;2023-01-31T16:46:34;7.50;99.90
51021;DHT22;38907;45.562;8.856;2023-01-31T16:51:40;7.40;99.90
51021;DHT22;38907;45.562;8.856;2023-01-31T16:56:45;7.20;99.90
51021;DHT22;38907;45.562;8.856;2023-01-31T17:01:54;7.10;99.90
51021;DHT22;38907;45.562;8.856;2023-01-31T17:07:04;7.00;99.90
51021;DHT22;38907;45.562;8.856;2023-01-31T17:12:17;7.00;99.90
51021;DHT22;38907;45.562;8.856;2023-01-31T17:17:20;6.90;99.90
51021;DHT22;38907;45.562;8.856;2023-01-31T17:22:22;6.70;99.90
51021;DHT22;38907;45.562;8.856;2023-01-31T17:27:25;6.70;99.90
51021;DHT22;38907;45.562;8.856;2023-01-31T17:32:27;6.50;99.90
51021;DHT22;38907;45.562;8.856;2023-01-31T17:37:29;6.50;99.90
51021;DHT22;38907;45.562;8.856;2023-01-31T17:42:32;6.60;99.90
51021;DHT22;38907;45.562;8.856;2023-01-31T17:47:34;6.60;99.90
51021;DHT22;38907;45.562;8.856;2023-01-31T17:52:36;6.60;99.90
51021;DHT22;38907;45.562;8.856;2023-01-31T17:57:39;6.60;99.90
51021;DHT22;38907;45.562;8.856;2023-01-31T18:02:41;6.40;99.90
51021;DHT22;38907;45.562;8.856;2023-01-31T18:07:44;6.40;99.90
51021;DHT22;38907;45.562;8.856;2023-01-31T18:12:48;6.40;99.90
51021;DHT22;38907;45.562;8.856;2023-01-31T18:17:51;6.20;99.90
51021;DHT22;38907;45.562;8.856;2023-01-31T18:22:54;6.20;99.90
51021;DHT22;38907;45.562;8.856;2023-01-31T18:27:58;6.10;99.90
51021;DHT22;38907;45.562;8.856;2023-01-31T18:33:01;6.10;99.90
51021;DHT22;38907;45.562;8.856;2023-01-31T18:38:03;6.00;99.90
51021;DHT22;38907;45.562;8.856;2023-01-31T18:43:08;6.00;99.90
51021;DHT22;38907;45.562;8.856;2023-01-31T18:48:10;5.80;99.90
51021;DHT22;38907;45.562;8.856;2023-01-31T18:53:12;5.60;99.90
51021;DHT22;38907;45.562;8.856;2023-01-31T18:58:16;5.60;99.90
51021;DHT22;38907;45.562;8.856;2023-01-31T19:03:19;5.70;99.90
51021;DHT22;38907;45.562;8.856;2023-01-31T19:08:21;5.60;99.90
51021;DHT22;38907;45.562;8.856;2023-01-31T19:13:26;5.50;99.90
51021;DHT22;38907;45.562;8.856;2023-01-31T19:18:30;5.40;99.90
51021;DHT22;38907;45.562;8.856;2023-01-31T19:23:32;5.10;99.90
51021;DHT22;38907;45.562;8.856;2023-01-31T19:28:37;5.00;99.90
51021;DHT22;38907;45.562;8.856;2023-01-31T19:33:39;4.60;99.90
51021;DHT22;38907;45.562;8.856;2023-01-31T19:38:43;4.80;99.90
51021;DHT22;38907;45.562;8.856;2023-01-31T19:43:47;4.90;99.90
51021;DHT22;38907;45.562;8.856;2023-01-31T19:48:49;4.90;99.90
51021;DHT22;38907;45.562;8.856;2023-01-31T19:53:54;4.90;99.90
51021;DHT22;38907;45.562;8.856;2023-01-31T19:59:00;5.00;99.90
51021;DHT22;38907;45.562;8.856;2023-01-31T20:04:02;5.10;99.90
51021;DHT22;38907;45.562;8.856;2023-01-31T20:09:05;5.00;99.90
51021;DHT22;38907;45.562;8.856;2023-01-31T20:14:09;4.60;99.90
51021;DHT22;38907;45.562;8.856;2023-01-31T20:19:11;4.40;99.90
51021;DHT22;38907;45.562;8.856;2023-01-31T20:24:13;4.40;99.90
51021;DHT22;38907;45.562;8.856;2023-01-31T20:29:16;4.40;99.90
51021;DHT22;38907;45.562;8.856;2023-01-31T20:34:18;4.60;99.90
51021;DHT22;38907;45.562;8.856;2023-01-31T20:39:20;4.60;99.90
51021;DHT22;38907;45.562;8.856;2023-01-31T20:44:25;4.50;99.90
51021;DHT22;38907;45.562;8.856;2023-01-31T20:49:27;4.40;99.90
51021;DHT22;38907;45.562;8.856;2023-01-31T20:54:28;4.00;99.90
51021;DHT22;38907;45.562;8.856;2023-01-31T20:59:32;3.80;99.90
51021;DHT22;38907;45.562;8.856;2023-01-31T21:04:34;3.80;99.90
51021;DHT22;38907;45.562;8.856;2023-01-31T21:09:35;4.00;99.90
51021;DHT22;38907;45.562;8.856;2023-01-31T21:14:39;4.30;99.90
51021;DHT22;38907;45.562;8.856;2023-01-31T21:19:40;4.40;99.90
51021;DHT22;38907;45.562;8.856;2023-01-31T21:24:42;4.40;99.90
51021;DHT22;38907;45.562;8.856;2023-01-31T21:29:46;4.50;99.90
51021;DHT22;38907;45.562;8.856;2023-01-31T21:34:48;4.70;99.90
51021;DHT22;38907;45.562;8.856;2023-01-31T21:39:50;4.40;99.90
51021;DHT22;38907;45.562;8.856;2023-01-31T21:44:54;4.20;99.90
51021;DHT22;38907;45.562;8.856;2023-01-31T21:49:56;4.00;99.90
51021;DHT22;38907;45.562;8.856;2023-01-31T21:54:58;3.90;99.90
51021;DHT22;38907;45.562;8.856;2023-01-31T22:00:01;3.70;99.90
51021;DHT22;38907;45.562;8.856;2023-01-31T22:05:03;3.60;99.90
51021;DHT22;38907;45.562;8.856;2023-01-31T22:10:06;3.60;99.90
51021;DHT22;38907;45.562;8.856;2023-01-31T22:15:09;3.60;99.90
51021;DHT22;38907;45.562;8.856;2023-01-31T22:20:11;3.60;99.90
51021;DHT22;38907;45.562;8.856;2023-01-31T22:25:15;3.30;99.90
51021;DHT22;38907;45.562;8.856;2023-01-31T22:30:18;3.20;99.90
51021;DHT22;38907;45.562;8.856;2023-01-31T22:35:20;3.20;99.90
51021;DHT22;38907;45.562;8.856;2023-01-31T22:40:22;3.20;99.90
51021;DHT22;38907;45.562;8.856;2023-01-31T22:45:25;3.30;99.90
51021;DHT22;38907;45.562;8.856;2023-01-31T22:50:27;3.00;99.90
51021;DHT22;38907;45.562;8.856;2023-01-31T22:55:29;2.90;99.90
51021;DHT22;38907;45.562;8.856;2023-01-31T23:00:33;3.10;99.90
51021;DHT22;38907;45.562;8.856;2023-01-31T23:05:37;3.10;99.90
51021;DHT22;38907;45.562;8.856;2023-01-31T23:10:40;3.00;99.90
51021;DHT22;38907;45.562;8.856;2023-01-31T23:15:45;2.80;99.90
51021;DHT22;38907;45.562;8.856;2023-01-31T23:20:47;2.60;99.90
51021;DHT22;38907;45.562;8.856;2023-01-31T23:25:49;2.90;99.90
51021;DHT22;38907;45.562;8.856;2023-01-31T23:30:52;2.80;99.90
51021;DHT22;38907;45.562;8.856;2023-01-31T23:35:54;2.50;99.90
51021;DHT22;38907;45.562;8.856;2023-01-31T23:40:56;2.30;99.90
51021;DHT22;38907;45.562;8.856;2023-01-31T23:45:59;2.20;99.90
51021;DHT22;38907;45.562;8.856;2023-01-31T23:51:03;2.40;99.90
51021;DHT22;38907;45.562;8.856;2023-01-31T23:56:05;2.60;99.90
